Terminal Aerodrome Forecast
Issued by NWS Bismarck, ND

Home | Current Version | Previous Version | Text Only | Print | Product List | Glossary On
Versions: 1 2 3 4 5 6 7 8 9 10 11 12 13 14 15 16 17 18 19 20
000
FTUS43 KBIS 240400 AAB
TAFBIS
TAF AMD
KBIS 240408Z 2404/2424 12010KT P6SM SCT120
     FM241100 12011KT P6SM VCTS BKN090CB
     FM241400 12013KT P6SM BKN250=

USA.gov is the U.S. government's official web portal to all federal, state and local government web resources and services.